NKS9909 KLAS-KGYR
Flight info
| Callsign | NKS9909 |
|---|---|
| Flight time | 0h 42m |
| Altitude | 33000 |
| Route | RASLR3 ZAYNE ELLDA ALLIS |
| Aircraft | A320/M-SDE3FGHIRWY/LB1 |
Departure
| Time | 2026-05-07 00:13 |
|---|---|
| Airport | Harry Reid International Airport (KLAS) |
Arrival
| Time | 2026-05-07 00:55 |
|---|---|
| Airport | Phoenix Goodyear Airport (KGYR) |
| Time | Latitude | Longitude | Altitude | Speed | Heading |
|---|---|---|---|---|---|
| 2026-05-06 23:33 | 36.08888 | -115.15431 | 2188 ft | 0 kts | 271° |
| 2026-05-06 23:54 | 36.08887 | -115.15431 | 2188 ft | 0 kts | 271° |
| 2026-05-06 23:54 | 36.08888 | -115.15431 | 2188 ft | 0 kts | 271° |
| 2026-05-06 23:55 | 36.08887 | -115.15431 | 2188 ft | 0 kts | 271° |
| 2026-05-06 23:55 | 36.08888 | -115.15431 | 2188 ft | 0 kts | 271° |
| 2026-05-06 23:56 | 36.08887 | -115.15431 | 2188 ft | 0 kts | 271° |
| 2026-05-06 23:56 | 36.08888 | -115.15431 | 2188 ft | 0 kts | 271° |
| 2026-05-06 23:58 | 36.08887 | -115.15431 | 2188 ft | 0 kts | 271° |
| 2026-05-06 23:58 | 36.08888 | -115.15431 | 2188 ft | 0 kts | 271° |
| 2026-05-06 23:59 | 36.08888 | -115.15430 | 2188 ft | 0 kts | 271° |
| 2026-05-06 23:59 | 36.08887 | -115.15430 | 2188 ft | 0 kts | 271° |
| 2026-05-07 00:00 | 36.08888 | -115.15430 | 2188 ft | 0 kts | 271° |
| 2026-05-07 00:00 | 36.08887 | -115.15430 | 2188 ft | 0 kts | 271° |
| 2026-05-07 00:00 | 36.08888 | -115.15430 | 2188 ft | 0 kts | 271° |
| 2026-05-07 00:01 | 36.08887 | -115.15430 | 2188 ft | 0 kts | 271° |
| 2026-05-07 00:01 | 36.08888 | -115.15430 | 2188 ft | 0 kts | 271° |
| 2026-05-07 00:01 | 36.08887 | -115.15430 | 2188 ft | 0 kts | 271° |
| 2026-05-07 00:01 | 36.08888 | -115.15430 | 2188 ft | 0 kts | 271° |
| 2026-05-07 00:02 | 36.08887 | -115.15430 | 2188 ft | 0 kts | 271° |
| 2026-05-07 00:02 | 36.08888 | -115.15430 | 2188 ft | 0 kts | 271° |
| 2026-05-07 00:03 | 36.08887 | -115.15430 | 2188 ft | 0 kts | 271° |
| 2026-05-07 00:03 | 36.08888 | -115.15430 | 2188 ft | 0 kts | 271° |
| 2026-05-07 00:04 | 36.08887 | -115.15430 | 2188 ft | 0 kts | 271° |
| 2026-05-07 00:05 | 36.08888 | -115.15430 | 2188 ft | 0 kts | 271° |
| 2026-05-07 00:05 | 36.08887 | -115.15430 | 2188 ft | 0 kts | 271° |
| 2026-05-07 00:08 | 36.08888 | -115.15432 | 2197 ft | 1 kts | 271° |
| 2026-05-07 00:09 | 36.08888 | -115.15463 | 2189 ft | 6 kts | 270° |
| 2026-05-07 00:09 | 36.08894 | -115.15531 | 2190 ft | 10 kts | 290° |
| 2026-05-07 00:09 | 36.08959 | -115.15588 | 2190 ft | 14 kts | 339° |
| 2026-05-07 00:09 | 36.09069 | -115.15584 | 2188 ft | 18 kts | 21° |
| 2026-05-07 00:10 | 36.09199 | -115.15510 | 2188 ft | 23 kts | 25° |
| 2026-05-07 00:10 | 36.09356 | -115.15421 | 2192 ft | 27 kts | 25° |
| 2026-05-07 00:10 | 36.09504 | -115.15335 | 2189 ft | 21 kts | 25° |
| 2026-05-07 00:10 | 36.09649 | -115.15252 | 2189 ft | 24 kts | 25° |
| 2026-05-07 00:11 | 36.09744 | -115.15206 | 2192 ft | 11 kts | 5° |
| 2026-05-07 00:11 | 36.09799 | -115.15253 | 2192 ft | 3 kts | 295° |
| 2026-05-07 00:11 | 36.09807 | -115.15273 | 2189 ft | 4 kts | 295° |
| 2026-05-07 00:12 | 36.09812 | -115.15323 | 2189 ft | 7 kts | 266° |
| 2026-05-07 00:12 | 36.09787 | -115.15389 | 2190 ft | 10 kts | 225° |
| 2026-05-07 00:12 | 36.09703 | -115.15445 | 2191 ft | 26 kts | 205° |
| 2026-05-07 00:12 | 36.09245 | -115.15707 | 2191 ft | 115 kts | 204° |
| 2026-05-07 00:13 | 36.08325 | -115.16234 | 2458 ft | 156 kts | 203° |
| 2026-05-07 00:13 | 36.07321 | -115.16810 | 3284 ft | 163 kts | 204° |
| 2026-05-07 00:13 | 36.06295 | -115.17412 | 4086 ft | 170 kts | 205° |
| 2026-05-07 00:13 | 36.05162 | -115.18079 | 4588 ft | 190 kts | 205° |
| 2026-05-07 00:14 | 36.03865 | -115.18846 | 5058 ft | 219 kts | 205° |
| 2026-05-07 00:14 | 36.02415 | -115.19706 | 5606 ft | 249 kts | 206° |
| 2026-05-07 00:14 | 36.00756 | -115.20692 | 6216 ft | 280 kts | 205° |
| 2026-05-07 00:14 | 35.98912 | -115.21585 | 7274 ft | 288 kts | 198° |
| 2026-05-07 00:15 | 35.96921 | -115.22004 | 8419 ft | 294 kts | 181° |
| 2026-05-07 00:15 | 35.94873 | -115.21728 | 9574 ft | 301 kts | 166° |
| 2026-05-07 00:15 | 35.92870 | -115.20821 | 10381 ft | 319 kts | 152° |
| 2026-05-07 00:15 | 35.91005 | -115.19194 | 10979 ft | 337 kts | 134° |
| 2026-05-07 00:16 | 35.89543 | -115.16925 | 11961 ft | 340 kts | 118° |
| 2026-05-07 00:16 | 35.88359 | -115.14375 | 12974 ft | 344 kts | 117° |
| 2026-05-07 00:16 | 35.87148 | -115.11818 | 13999 ft | 347 kts | 115° |
| 2026-05-07 00:16 | 35.86190 | -115.09089 | 14932 ft | 347 kts | 104° |
| 2026-05-07 00:17 | 35.85484 | -115.06268 | 15849 ft | 350 kts | 103° |
| 2026-05-07 00:17 | 35.84780 | -115.03378 | 16770 ft | 354 kts | 103° |
| 2026-05-07 00:17 | 35.84076 | -115.00460 | 17637 ft | 358 kts | 103° |
| 2026-05-07 00:17 | 35.83364 | -114.97496 | 18497 ft | 363 kts | 102° |
| 2026-05-07 00:18 | 35.82645 | -114.94500 | 19295 ft | 367 kts | 102° |
| 2026-05-07 00:18 | 35.81913 | -114.91466 | 20114 ft | 371 kts | 102° |
| 2026-05-07 00:18 | 35.81171 | -114.88400 | 20933 ft | 375 kts | 102° |
| 2026-05-07 00:18 | 35.80419 | -114.85296 | 21732 ft | 380 kts | 102° |
| 2026-05-07 00:19 | 35.79658 | -114.82163 | 22517 ft | 384 kts | 102° |
| 2026-05-07 00:19 | 35.78885 | -114.78996 | 23311 ft | 388 kts | 102° |
| 2026-05-07 00:19 | 35.78104 | -114.75797 | 24018 ft | 392 kts | 102° |
| 2026-05-07 00:19 | 35.77313 | -114.72568 | 24677 ft | 395 kts | 102° |
| 2026-05-07 00:20 | 35.76514 | -114.69311 | 25322 ft | 399 kts | 102° |
| 2026-05-07 00:20 | 35.75711 | -114.66033 | 25968 ft | 402 kts | 102° |
| 2026-05-07 00:20 | 35.74899 | -114.62726 | 26594 ft | 405 kts | 102° |
| 2026-05-07 00:20 | 35.74080 | -114.59391 | 27195 ft | 409 kts | 102° |
| 2026-05-07 00:21 | 35.73256 | -114.56028 | 27764 ft | 412 kts | 102° |
| 2026-05-07 00:21 | 35.72423 | -114.52635 | 28340 ft | 416 kts | 102° |
| 2026-05-07 00:21 | 35.71582 | -114.49215 | 28935 ft | 419 kts | 102° |
| 2026-05-07 00:21 | 35.70641 | -114.45805 | 29526 ft | 426 kts | 108° |
| 2026-05-07 00:22 | 35.69246 | -114.42539 | 30090 ft | 436 kts | 118° |
| 2026-05-07 00:22 | 35.67401 | -114.39592 | 30563 ft | 446 kts | 128° |
| 2026-05-07 00:22 | 35.65074 | -114.36931 | 31036 ft | 454 kts | 134° |
| 2026-05-07 00:22 | 35.62696 | -114.34430 | 31508 ft | 457 kts | 134° |
| 2026-05-07 00:23 | 35.60274 | -114.31876 | 31995 ft | 460 kts | 134° |
| 2026-05-07 00:23 | 35.57850 | -114.29318 | 32616 ft | 459 kts | 134° |
| 2026-05-07 00:23 | 35.55426 | -114.26764 | 32867 ft | 459 kts | 134° |
| 2026-05-07 00:23 | 35.53021 | -114.24236 | 32928 ft | 447 kts | 134° |
| 2026-05-07 00:24 | 35.50694 | -114.21801 | 32935 ft | 434 kts | 134° |
| 2026-05-07 00:24 | 35.48410 | -114.19405 | 32957 ft | 430 kts | 134° |
| 2026-05-07 00:24 | 35.43879 | -114.14635 | 32984 ft | 428 kts | 133° |
| 2026-05-07 00:25 | 35.40098 | -114.10658 | 33006 ft | 428 kts | 133° |
| 2026-05-07 00:25 | 35.35613 | -114.05943 | 33029 ft | 427 kts | 134° |
| 2026-05-07 00:26 | 35.31606 | -114.00709 | 33060 ft | 414 kts | 117° |
| 2026-05-07 00:26 | 35.29254 | -113.94442 | 33059 ft | 400 kts | 99° |
| 2026-05-07 00:27 | 35.27899 | -113.87836 | 33064 ft | 400 kts | 98° |
| 2026-05-07 00:27 | 35.26527 | -113.81241 | 33055 ft | 400 kts | 98° |
| 2026-05-07 00:28 | 35.25148 | -113.74646 | 33037 ft | 400 kts | 98° |
| 2026-05-07 00:28 | 35.23645 | -113.68122 | 33014 ft | 405 kts | 106° |
| 2026-05-07 00:29 | 35.20589 | -113.62222 | 32991 ft | 421 kts | 127° |
| 2026-05-07 00:30 | 35.12074 | -113.52274 | 32954 ft | 423 kts | 130° |
| 2026-05-07 00:30 | 35.07797 | -113.47322 | 32960 ft | 424 kts | 130° |
| 2026-05-07 00:31 | 35.03511 | -113.42378 | 32963 ft | 424 kts | 130° |
| 2026-05-07 00:31 | 34.99021 | -113.37694 | 32958 ft | 431 kts | 141° |
| 2026-05-07 00:32 | 34.93536 | -113.34538 | 32963 ft | 439 kts | 153° |
| 2026-05-07 00:32 | 34.87900 | -113.31768 | 32970 ft | 439 kts | 152° |
| 2026-05-07 00:33 | 34.82241 | -113.28979 | 32979 ft | 438 kts | 152° |
| 2026-05-07 00:33 | 34.76591 | -113.26195 | 32979 ft | 438 kts | 152° |
| 2026-05-07 00:34 | 34.70943 | -113.23420 | 32376 ft | 438 kts | 152° |
| 2026-05-07 00:34 | 34.68126 | -113.22041 | 31797 ft | 435 kts | 152° |
| 2026-05-07 00:34 | 34.65324 | -113.20673 | 31205 ft | 433 kts | 153° |
| 2026-05-07 00:35 | 34.62532 | -113.19310 | 30620 ft | 431 kts | 153° |
| 2026-05-07 00:35 | 34.59756 | -113.17951 | 30037 ft | 429 kts | 153° |
| 2026-05-07 00:35 | 34.56992 | -113.16600 | 29411 ft | 426 kts | 153° |
| 2026-05-07 00:35 | 34.54259 | -113.15266 | 28849 ft | 421 kts | 153° |
| 2026-05-07 00:36 | 34.51551 | -113.13943 | 28312 ft | 417 kts | 153° |
| 2026-05-07 00:36 | 34.48868 | -113.12630 | 27784 ft | 414 kts | 153° |
| 2026-05-07 00:36 | 34.46202 | -113.11325 | 27265 ft | 411 kts | 153° |
| 2026-05-07 00:36 | 34.43557 | -113.10031 | 26768 ft | 409 kts | 153° |
| 2026-05-07 00:37 | 34.40961 | -113.08764 | 26282 ft | 406 kts | 153° |
| 2026-05-07 00:37 | 34.38313 | -113.07476 | 25773 ft | 405 kts | 154° |
| 2026-05-07 00:37 | 34.35734 | -113.06224 | 25275 ft | 404 kts | 154° |
| 2026-05-07 00:37 | 34.33129 | -113.04961 | 24772 ft | 403 kts | 154° |
| 2026-05-07 00:38 | 34.30530 | -113.03699 | 24252 ft | 402 kts | 154° |
| 2026-05-07 00:38 | 34.27938 | -113.02442 | 23720 ft | 401 kts | 155° |
| 2026-05-07 00:38 | 34.25348 | -113.01184 | 23122 ft | 401 kts | 155° |
| 2026-05-07 00:38 | 34.22767 | -112.99927 | 22557 ft | 398 kts | 155° |
| 2026-05-07 00:39 | 34.20211 | -112.98685 | 21995 ft | 395 kts | 155° |
| 2026-05-07 00:39 | 34.17669 | -112.97453 | 21427 ft | 392 kts | 155° |
| 2026-05-07 00:39 | 34.15148 | -112.96235 | 20862 ft | 389 kts | 155° |
| 2026-05-07 00:39 | 34.12645 | -112.95027 | 20288 ft | 386 kts | 155° |
| 2026-05-07 00:40 | 34.10167 | -112.93831 | 19729 ft | 382 kts | 155° |
| 2026-05-07 00:40 | 34.07712 | -112.92645 | 19169 ft | 379 kts | 155° |
| 2026-05-07 00:40 | 34.05270 | -112.91464 | 18606 ft | 375 kts | 156° |
| 2026-05-07 00:40 | 34.02858 | -112.90296 | 18011 ft | 372 kts | 156° |
| 2026-05-07 00:41 | 34.00471 | -112.89142 | 17451 ft | 367 kts | 156° |
| 2026-05-07 00:41 | 33.98123 | -112.88009 | 16922 ft | 361 kts | 156° |
| 2026-05-07 00:41 | 33.95807 | -112.86892 | 16388 ft | 357 kts | 156° |
| 2026-05-07 00:41 | 33.93506 | -112.85787 | 15848 ft | 354 kts | 156° |
| 2026-05-07 00:42 | 33.91232 | -112.84694 | 15317 ft | 350 kts | 155° |
| 2026-05-07 00:42 | 33.88978 | -112.83610 | 14789 ft | 347 kts | 156° |
| 2026-05-07 00:42 | 33.86744 | -112.82534 | 14259 ft | 345 kts | 156° |
| 2026-05-07 00:42 | 33.84527 | -112.81468 | 13749 ft | 342 kts | 156° |
| 2026-05-07 00:43 | 33.82351 | -112.80425 | 13205 ft | 339 kts | 156° |
| 2026-05-07 00:43 | 33.80170 | -112.79382 | 12692 ft | 336 kts | 156° |
| 2026-05-07 00:43 | 33.78011 | -112.78350 | 12191 ft | 332 kts | 156° |
| 2026-05-07 00:43 | 33.75873 | -112.77324 | 11697 ft | 330 kts | 156° |
| 2026-05-07 00:44 | 33.73750 | -112.76302 | 11206 ft | 327 kts | 156° |
| 2026-05-07 00:44 | 33.71644 | -112.75291 | 10709 ft | 325 kts | 156° |
| 2026-05-07 00:44 | 33.69545 | -112.74288 | 10221 ft | 323 kts | 156° |
| 2026-05-07 00:44 | 33.67479 | -112.73307 | 9943 ft | 309 kts | 156° |
| 2026-05-07 00:45 | 33.65524 | -112.72381 | 9677 ft | 296 kts | 156° |
| 2026-05-07 00:45 | 33.63628 | -112.71479 | 9351 ft | 292 kts | 156° |
| 2026-05-07 00:45 | 33.61742 | -112.70577 | 8957 ft | 291 kts | 156° |
| 2026-05-07 00:45 | 33.59866 | -112.69678 | 8550 ft | 290 kts | 157° |
| 2026-05-07 00:46 | 33.57985 | -112.68776 | 8140 ft | 291 kts | 157° |
| 2026-05-07 00:46 | 33.56107 | -112.67877 | 7732 ft | 291 kts | 158° |
| 2026-05-07 00:46 | 33.54256 | -112.66994 | 7332 ft | 290 kts | 159° |
| 2026-05-07 00:46 | 33.52373 | -112.66098 | 6927 ft | 290 kts | 159° |
| 2026-05-07 00:47 | 33.50499 | -112.65205 | 6522 ft | 290 kts | 159° |
| 2026-05-07 00:47 | 33.48629 | -112.64314 | 6097 ft | 289 kts | 159° |
| 2026-05-07 00:47 | 33.46762 | -112.63419 | 5669 ft | 289 kts | 158° |
| 2026-05-07 00:47 | 33.45146 | -112.62030 | 5261 ft | 290 kts | 128° |
| 2026-05-07 00:48 | 33.44283 | -112.59864 | 4867 ft | 290 kts | 106° |
| 2026-05-07 00:48 | 33.43918 | -112.57504 | 4455 ft | 289 kts | 96° |
| 2026-05-07 00:48 | 33.43760 | -112.55103 | 4036 ft | 289 kts | 93° |
| 2026-05-07 00:48 | 33.43651 | -112.52712 | 3627 ft | 288 kts | 93° |
| 2026-05-07 00:49 | 33.43522 | -112.50329 | 3212 ft | 286 kts | 94° |
| 2026-05-07 00:49 | 33.43375 | -112.47989 | 3005 ft | 276 kts | 94° |
| 2026-05-07 00:49 | 33.43224 | -112.45757 | 2985 ft | 260 kts | 97° |
| 2026-05-07 00:49 | 33.42974 | -112.43704 | 2996 ft | 240 kts | 99° |
| 2026-05-07 00:50 | 33.42714 | -112.41803 | 2997 ft | 223 kts | 99° |
| 2026-05-07 00:50 | 33.42461 | -112.40036 | 2998 ft | 207 kts | 100° |
| 2026-05-07 00:50 | 33.42229 | -112.38389 | 2992 ft | 194 kts | 99° |
| 2026-05-07 00:50 | 33.42017 | -112.36841 | 3016 ft | 179 kts | 99° |
| 2026-05-07 00:51 | 33.41826 | -112.35433 | 3010 ft | 165 kts | 99° |
| 2026-05-07 00:51 | 33.41902 | -112.34138 | 2991 ft | 151 kts | 69° |
| 2026-05-07 00:51 | 33.42344 | -112.32960 | 3001 ft | 162 kts | 62° |
| 2026-05-07 00:51 | 33.42882 | -112.31739 | 2945 ft | 165 kts | 59° |
| 2026-05-07 00:52 | 33.43438 | -112.30545 | 2697 ft | 167 kts | 56° |
| 2026-05-07 00:52 | 33.44312 | -112.29656 | 2530 ft | 161 kts | 19° |
| 2026-05-07 00:52 | 33.45372 | -112.29587 | 2498 ft | 152 kts | 339° |
| 2026-05-07 00:52 | 33.46202 | -112.30307 | 2479 ft | 148 kts | 301° |
| 2026-05-07 00:53 | 33.46480 | -112.31428 | 2478 ft | 136 kts | 266° |
| 2026-05-07 00:53 | 33.46266 | -112.32487 | 2436 ft | 128 kts | 253° |
| 2026-05-07 00:53 | 33.45974 | -112.33495 | 2163 ft | 128 kts | 249° |
| 2026-05-07 00:53 | 33.45557 | -112.34422 | 1851 ft | 128 kts | 229° |
| 2026-05-07 00:54 | 33.44925 | -112.35141 | 1584 ft | 124 kts | 218° |
| 2026-05-07 00:54 | 33.44242 | -112.35759 | 1332 ft | 122 kts | 218° |
| 2026-05-07 00:54 | 33.43576 | -112.36380 | 1169 ft | 121 kts | 217° |
| 2026-05-07 00:54 | 33.42912 | -112.36997 | 1009 ft | 121 kts | 218° |
| 2026-05-07 00:55 | 33.42321 | -112.37544 | 964 ft | 87 kts | 218° |
| 2026-05-07 00:55 | 33.41950 | -112.37890 | 957 ft | 55 kts | 218° |
| 2026-05-07 00:55 | 33.41697 | -112.38126 | 955 ft | 40 kts | 218° |
| 2026-05-07 00:55 | 33.41519 | -112.38285 | 953 ft | 22 kts | 205° |
| 2026-05-07 00:56 | 33.41435 | -112.38212 | 951 ft | 8 kts | 70° |
| 2026-05-07 00:56 | 33.41477 | -112.38166 | 950 ft | 10 kts | 41° |
| 2026-05-07 00:56 | 33.41544 | -112.38102 | 952 ft | 14 kts | 37° |
| 2026-05-07 00:56 | 33.41631 | -112.38022 | 954 ft | 17 kts | 38° |
| 2026-05-07 00:57 | 33.41742 | -112.37920 | 952 ft | 23 kts | 37° |
| 2026-05-07 00:57 | 33.41881 | -112.37788 | 956 ft | 28 kts | 38° |
| 2026-05-07 00:57 | 33.42040 | -112.37641 | 955 ft | 25 kts | 38° |
| 2026-05-07 00:57 | 33.42183 | -112.37508 | 962 ft | 26 kts | 38° |
| 2026-05-07 00:58 | 33.42323 | -112.37376 | 965 ft | 25 kts | 38° |
| 2026-05-07 00:58 | 33.42469 | -112.37241 | 969 ft | 28 kts | 38° |
| 2026-05-07 00:58 | 33.42607 | -112.37110 | 967 ft | 21 kts | 38° |
| 2026-05-07 00:58 | 33.42700 | -112.37024 | 967 ft | 16 kts | 38° |
| 2026-05-07 00:59 | 33.42706 | -112.36873 | 967 ft | 13 kts | 125° |
| 2026-05-07 00:59 | 33.42639 | -112.36770 | 967 ft | 18 kts | 129° |
| 2026-05-07 00:59 | 33.42554 | -112.36646 | 967 ft | 15 kts | 129° |
| 2026-05-07 01:00 | 33.42563 | -112.36585 | 967 ft | 7 kts | 38° |
| 2026-05-07 01:00 | 33.42584 | -112.36599 | 968 ft | 0 kts | 308° |
| 2026-05-07 01:08 | 33.42583 | -112.36599 | 969 ft | 0 kts | 308° |